.
Local / CommonContents

Fort Wayne - NE Ind.
U N D E R   C O N S T R U C T I O N

Northern Indiana (IWX) Radar

Latest IWX NEXRAD
Base Reflectivity



Latest IWX NEXRAD
Base Velocity

Indiana-Ohio Visible Satellite

For infrared and water vapor imagery, see Great Lakes - Midwest.

Current Conditions

Recent report from the Fort Wayne International Airport

Nov 22, 2017 - 09:54 PM EST / 2017.11.23 0254 UTC


The skies are overcast. The temperature is 30.0 F (-1.1 C) and the dew point is 25.0 F (-3.9 C), giving a relative humidity of 81%. The barometric pressure is 30.24 in. Hg (1024 hPa) and falling. The wind is Calm, and the visibility is 10 mile(s).

KFWA 230254Z 00000KT 10SM OVC210 M01/M04 A3024 RMK AO2 SLP250 T10111039 55006
CoCoRaHS
IN-AL-39
A2 Web Hosting
Creative Commons License
GoDaddy
Look for:

loaded 2017-11-22 22:51:28 • last modified 2015-05-28 14:58:18
Privacy PolicyDisclaimer
• wx.awcolley.com is powered by PmWiki v.2002016 •
• all content (unless otherwise noted) © 2017 A W Colley